createdAt,value
2022-09-17T00:01:24.933Z,2.95
2022-09-17T00:03:53.673Z,2.63
2022-09-17T00:06:21.110Z,2.90
2022-09-17T00:08:47.591Z,3.80
2022-09-17T00:11:20.958Z,5.55
2022-09-17T00:13:49.111Z,4.95
2022-09-17T00:16:42.458Z,5.78
2022-09-17T00:19:13.869Z,5.68
2022-09-17T00:21:41.484Z,5.85
2022-09-17T00:24:10.159Z,6.18
2022-09-17T00:26:36.940Z,5.47
2022-09-17T00:29:04.907Z,5.80
2022-09-17T00:31:32.218Z,4.93
2022-09-17T00:34:00.179Z,3.63
2022-09-17T00:36:27.313Z,4.10
2022-09-17T00:38:57.712Z,2.35
2022-09-17T00:41:27.228Z,2.60
2022-09-17T00:43:59.537Z,1.98
2022-09-17T00:46:37.072Z,2.42
2022-09-17T00:49:12.726Z,2.42
2022-09-17T00:52:07.905Z,2.33
2022-09-17T00:54:38.269Z,2.30
2022-09-17T00:57:04.903Z,2.13
2022-09-17T00:59:31.469Z,1.90
2022-09-17T01:01:58.491Z,1.95
2022-09-17T01:04:27.269Z,2.03
2022-09-17T01:07:17.653Z,1.60
2022-09-17T01:10:00.694Z,1.90
2022-09-17T01:12:27.028Z,1.95
2022-09-17T01:15:22.769Z,1.75
2022-09-17T01:18:30.365Z,1.52
2022-09-17T01:20:59.476Z,1.55
2022-09-17T01:23:36.794Z,1.55
2022-09-17T01:26:16.415Z,1.73
2022-09-17T01:29:04.613Z,3.55
2022-09-17T01:31:42.172Z,1.30
2022-09-17T01:34:21.948Z,1.40
2022-09-17T01:37:02.219Z,1.52
2022-09-17T01:39:31.851Z,1.60
2022-09-17T01:42:31.423Z,1.27
2022-09-17T01:45:15.286Z,1.13
2022-09-17T01:47:56.813Z,1.15
2022-09-17T01:50:33.502Z,1.30
2022-09-17T01:53:00.705Z,0.73
2022-09-17T01:55:32.121Z,1.00
2022-09-17T01:58:08.145Z,0.90
2022-09-17T02:00:36.772Z,1.20
2022-09-17T02:03:30.534Z,1.92
2022-09-17T02:06:03.788Z,1.25
2022-09-17T02:08:56.315Z,1.48
2022-09-17T02:11:22.989Z,1.80
2022-09-17T02:14:21.071Z,1.38
2022-09-17T02:16:54.220Z,1.85
2022-09-17T02:19:29.786Z,1.55
2022-09-17T02:22:20.824Z,1.75
2022-09-17T02:25:09.244Z,1.60
2022-09-17T02:27:59.869Z,1.60
2022-09-17T02:30:26.372Z,1.50
2022-09-17T02:32:54.804Z,1.73
2022-09-17T02:35:21.980Z,1.60
2022-09-17T02:37:48.487Z,2.20
2022-09-17T02:40:18.329Z,1.50
2022-09-17T02:43:11.923Z,2.88
2022-09-17T02:46:27.371Z,1.85
2022-09-17T02:49:42.122Z,1.35
2022-09-17T02:52:23.511Z,1.35
2022-09-17T02:55:27.661Z,1.13
2022-09-17T02:58:06.334Z,1.10
2022-09-17T03:00:33.011Z,1.05
2022-09-17T03:03:25.488Z,1.23
2022-09-17T03:05:53.281Z,0.98
2022-09-17T03:08:21.084Z,1.10
2022-09-17T03:10:50.221Z,0.90
2022-09-17T03:13:16.611Z,1.10
2022-09-17T03:15:43.242Z,0.98
2022-09-17T03:18:09.796Z,0.80
2022-09-17T03:20:36.444Z,0.80
2022-09-17T03:23:02.866Z,0.60
2022-09-17T03:25:29.253Z,0.70
2022-09-17T03:27:55.788Z,0.73
2022-09-17T03:30:22.184Z,0.90
2022-09-17T03:32:48.592Z,0.63
2022-09-17T03:35:15.064Z,0.40
2022-09-17T03:37:41.503Z,0.68
2022-09-17T03:40:08.197Z,0.50
2022-09-17T03:42:34.688Z,0.70
2022-09-17T03:45:01.099Z,0.50
2022-09-17T03:47:27.508Z,0.70
2022-09-17T03:49:53.896Z,0.50
2022-09-17T03:52:20.479Z,0.50
2022-09-17T03:54:47.143Z,0.52
2022-09-17T03:57:13.556Z,0.55
2022-09-17T03:59:39.967Z,0.30
2022-09-17T04:02:06.860Z,0.60
2022-09-17T04:04:33.477Z,0.60
2022-09-17T04:06:59.886Z,0.40
2022-09-17T04:09:26.827Z,0.43
2022-09-17T04:11:53.300Z,0.30
2022-09-17T04:14:19.676Z,0.30
2022-09-17T04:16:46.241Z,0.63
2022-09-17T04:19:12.678Z,1.13
2022-09-17T04:21:39.170Z,0.45
2022-09-17T04:24:05.779Z,0.20
2022-09-17T04:26:32.199Z,0.32
2022-09-17T04:28:58.678Z,0.55
2022-09-17T04:31:27.027Z,0.40
2022-09-17T04:33:53.794Z,0.50
2022-09-17T04:36:20.189Z,0.50
2022-09-17T04:38:50.026Z,0.40
2022-09-17T04:41:16.416Z,0.50
2022-09-17T04:43:42.872Z,0.40
2022-09-17T04:46:09.317Z,0.45
2022-09-17T04:48:35.799Z,0.57
2022-09-17T04:51:02.246Z,2.40
2022-09-17T04:53:28.744Z,0.80
2022-09-17T04:55:55.211Z,0.50
2022-09-17T04:58:21.596Z,0.70
2022-09-17T05:00:48.509Z,0.70
2022-09-17T05:03:14.972Z,0.75
2022-09-17T05:05:41.364Z,1.00
2022-09-17T05:08:08.434Z,1.23
2022-09-17T05:10:35.025Z,0.98
2022-09-17T05:13:01.422Z,3.03
2022-09-17T05:15:27.835Z,3.30
2022-09-17T05:17:54.368Z,1.83
2022-09-17T05:20:21.049Z,3.67
2022-09-17T05:22:50.480Z,1.73
2022-09-17T05:25:19.281Z,2.17
2022-09-17T05:27:45.895Z,0.52
2022-09-17T05:30:13.074Z,1.23
2022-09-17T05:32:40.665Z,0.80
2022-09-17T05:35:08.416Z,0.82
2022-09-17T05:37:35.024Z,0.60
2022-09-17T05:40:02.581Z,0.60
2022-09-17T05:42:29.102Z,0.60
2022-09-17T05:44:55.492Z,0.80
2022-09-17T05:47:21.905Z,0.75
2022-09-17T05:49:48.340Z,0.95
2022-09-17T05:52:14.769Z,0.80
2022-09-17T05:54:41.233Z,0.80
2022-09-17T05:57:07.637Z,0.80
2022-09-17T05:59:35.207Z,0.60
2022-09-17T06:02:01.786Z,1.27
2022-09-17T06:04:31.528Z,0.85
2022-09-17T06:07:00.497Z,1.50
2022-09-17T06:09:26.876Z,1.10
2022-09-17T06:11:53.322Z,0.70
2022-09-17T06:14:19.740Z,0.90
2022-09-17T06:16:46.188Z,0.65
2022-09-17T06:19:12.613Z,0.68
2022-09-17T06:21:39.005Z,1.23
2022-09-17T06:24:05.625Z,0.70
2022-09-17T06:26:32.028Z,1.38
2022-09-17T06:29:00.026Z,1.00
2022-09-17T06:31:26.488Z,2.80
2022-09-17T06:33:54.178Z,0.57
2022-09-17T06:36:20.690Z,0.77
2022-09-17T06:38:47.171Z,0.70
2022-09-17T06:41:14.912Z,0.90
2022-09-17T06:43:41.329Z,0.55
2022-09-17T06:46:09.197Z,0.98
2022-09-17T06:48:37.358Z,1.02
2022-09-17T06:51:06.937Z,0.95
2022-09-17T06:53:37.286Z,1.35
2022-09-17T06:56:06.675Z,1.00
2022-09-17T06:58:34.750Z,0.93
2022-09-17T07:01:01.907Z,2.17
2022-09-17T07:03:29.722Z,1.52
2022-09-17T07:05:56.765Z,1.33
2022-09-17T07:08:23.316Z,1.67
2022-09-17T07:10:49.908Z,0.77
2022-09-17T07:13:16.332Z,1.00
2022-09-17T07:15:42.782Z,0.80
2022-09-17T07:18:12.082Z,2.03
2022-09-17T07:20:39.135Z,2.15
2022-09-17T07:23:05.973Z,3.15
2022-09-17T07:25:32.429Z,0.90
2022-09-17T07:27:59.531Z,1.27
2022-09-17T07:30:25.962Z,1.40
2022-09-17T07:32:52.348Z,1.23
2022-09-17T07:35:18.753Z,0.98
2022-09-17T07:37:45.321Z,1.00
2022-09-17T07:40:11.770Z,1.13
2022-09-17T07:42:38.250Z,0.88
2022-09-17T07:45:05.025Z,0.80
2022-09-17T07:47:31.441Z,0.65
2022-09-17T07:49:57.830Z,0.63
2022-09-17T07:52:24.667Z,0.50
2022-09-17T07:54:52.090Z,0.60
2022-09-17T07:57:18.478Z,0.50
2022-09-17T07:59:44.865Z,0.30
2022-09-17T08:02:14.514Z,0.30
2022-09-17T08:04:44.160Z,0.40
2022-09-17T08:07:13.831Z,0.43
2022-09-17T08:09:40.205Z,0.20
2022-09-17T08:12:07.010Z,0.38
2022-09-17T08:14:33.472Z,0.50
2022-09-17T08:16:59.876Z,0.50
2022-09-17T08:19:27.241Z,1.70
2022-09-17T08:21:53.731Z,0.50
2022-09-17T08:24:20.156Z,0.60
2022-09-17T08:26:46.572Z,0.40
2022-09-17T08:29:12.990Z,0.45
2022-09-17T08:31:39.601Z,0.30
2022-09-17T08:34:09.971Z,1.10
2022-09-17T08:36:36.875Z,0.60
2022-09-17T08:39:04.196Z,0.30
2022-09-17T08:42:02.989Z,0.32
2022-09-17T08:44:41.111Z,0.20
2022-09-17T08:47:31.813Z,0.40
2022-09-17T08:50:01.139Z,0.30
2022-09-17T08:52:57.626Z,0.30
2022-09-17T08:55:45.150Z,0.43
2022-09-17T08:58:11.684Z,0.20
2022-09-17T09:00:45.929Z,0.10
2022-09-17T09:03:24.262Z,0.50
2022-09-17T09:05:56.367Z,0.40
2022-09-17T09:08:31.922Z,0.30
2022-09-17T09:11:02.039Z,0.50
2022-09-17T09:13:34.452Z,0.40
2022-09-17T09:16:07.131Z,0.85
2022-09-17T09:18:38.136Z,0.82
2022-09-17T09:21:29.284Z,1.20
2022-09-17T09:23:59.304Z,0.60
2022-09-17T09:26:49.081Z,0.35
2022-09-17T09:29:33.636Z,0.73
2022-09-17T09:32:25.124Z,7.10
2022-09-17T09:34:54.918Z,0.68
2022-09-17T09:37:27.928Z,0.40
2022-09-17T09:39:58.286Z,0.30
2022-09-17T09:42:32.241Z,0.30
2022-09-17T09:45:11.567Z,0.28
2022-09-17T09:47:47.768Z,0.30
2022-09-17T09:50:17.210Z,0.68
2022-09-17T09:52:46.547Z,0.22
2022-09-17T09:55:33.092Z,0.50
2022-09-17T09:58:04.581Z,0.65
2022-09-17T10:00:37.090Z,0.20
2022-09-17T10:03:20.618Z,0.20
2022-09-17T10:05:54.553Z,0.40
2022-09-17T10:08:21.166Z,0.35
2022-09-17T10:11:21.135Z,0.30
2022-09-17T10:13:47.595Z,0.35
2022-09-17T10:16:20.084Z,0.45
2022-09-17T10:18:48.769Z,0.50
2022-09-17T10:21:30.082Z,0.60
2022-09-17T10:23:57.081Z,0.65
2022-09-17T10:26:26.442Z,0.30
2022-09-17T10:28:58.679Z,0.50
2022-09-17T10:31:25.235Z,0.73
2022-09-17T10:34:01.467Z,0.20
2022-09-17T10:36:45.417Z,0.22
2022-09-17T10:39:27.040Z,0.52
2022-09-17T10:41:54.768Z,0.28
2022-09-17T10:44:24.015Z,0.20
2022-09-17T10:46:51.964Z,0.17
2022-09-17T10:49:35.612Z,0.30
2022-09-17T10:52:19.969Z,0.22
2022-09-17T10:55:05.381Z,0.47
2022-09-17T10:57:34.644Z,0.30
2022-09-17T11:00:18.135Z,0.20
2022-09-17T11:03:22.040Z,0.20
2022-09-17T11:06:25.749Z,0.20
2022-09-17T11:09:19.774Z,0.30
2022-09-17T11:11:58.026Z,0.30
2022-09-17T11:14:41.286Z,0.43
2022-09-17T11:17:18.883Z,0.55
2022-09-17T11:20:17.767Z,0.20
2022-09-17T11:23:22.998Z,0.20
2022-09-17T11:26:12.882Z,0.20
2022-09-17T11:28:39.244Z,0.20
2022-09-17T11:31:08.328Z,0.20
2022-09-17T11:34:04.493Z,0.40
2022-09-17T11:37:17.459Z,0.30
2022-09-17T11:39:57.638Z,0.40
2022-09-17T11:42:56.572Z,0.70
2022-09-17T11:45:32.422Z,1.00
2022-09-17T11:48:05.085Z,0.80
2022-09-17T11:50:39.892Z,0.63
2022-09-17T11:53:30.888Z,0.30
2022-09-17T11:56:25.382Z,0.25
2022-09-17T11:59:03.733Z,0.30
2022-09-17T12:01:41.325Z,0.20
2022-09-17T12:04:30.124Z,0.20
2022-09-17T12:07:21.138Z,0.22
2022-09-17T12:09:56.347Z,0.75
2022-09-17T12:12:48.293Z,0.40
2022-09-17T12:15:27.844Z,0.30
2022-09-17T12:18:27.375Z,0.30
2022-09-17T12:20:49.930Z,0.20
2022-09-17T12:23:20.156Z,0.20
2022-09-17T12:26:10.093Z,0.30
2022-09-17T12:29:16.307Z,0.70
2022-09-17T12:32:08.980Z,0.45
2022-09-17T12:34:53.464Z,0.30
2022-09-17T12:37:41.449Z,0.20
2022-09-17T12:40:26.742Z,0.20
2022-09-17T12:43:19.152Z,0.30
2022-09-17T12:45:51.495Z,0.20
2022-09-17T12:48:49.902Z,0.30
2022-09-17T12:51:31.715Z,0.30
2022-09-17T12:53:58.077Z,0.32
2022-09-17T12:56:57.413Z,0.28
2022-09-17T12:59:29.208Z,0.30
2022-09-17T13:02:18.731Z,0.20
2022-09-17T13:05:01.787Z,0.20
2022-09-17T13:07:31.661Z,0.30
2022-09-17T13:10:17.037Z,0.30
2022-09-17T13:13:09.480Z,0.43
2022-09-17T13:15:44.770Z,0.20
2022-09-17T13:18:27.884Z,0.70
2022-09-17T13:21:14.392Z,0.10
2022-09-17T13:23:46.526Z,0.30
2022-09-17T13:26:17.173Z,0.20
2022-09-17T13:28:51.776Z,0.22
2022-09-17T13:31:44.520Z,0.20
2022-09-17T13:34:20.246Z,0.20
2022-09-17T13:36:51.984Z,0.50
2022-09-17T13:39:46.639Z,0.38
2022-09-17T13:42:18.832Z,0.28
2022-09-17T13:45:04.613Z,0.50
2022-09-17T13:47:31.009Z,0.30
2022-09-17T13:50:07.985Z,0.73
2022-09-17T13:52:42.517Z,0.60
2022-09-17T13:55:29.478Z,0.40
2022-09-17T13:57:56.502Z,1.17
2022-09-17T14:00:49.895Z,1.52
2022-09-17T14:03:31.397Z,0.32
2022-09-17T14:06:18.631Z,0.40
2022-09-17T14:08:45.220Z,0.25
2022-09-17T14:11:23.578Z,0.40
2022-09-17T14:13:57.676Z,0.35
2022-09-17T14:16:27.192Z,0.30
2022-09-17T14:18:58.967Z,0.28
2022-09-17T14:21:30.032Z,0.40
2022-09-17T14:26:54.017Z,0.30
2022-09-17T14:30:02.274Z,0.40
2022-09-17T14:32:37.714Z,0.40
2022-09-17T14:35:19.223Z,0.52
2022-09-17T14:37:54.669Z,0.50
2022-09-17T14:40:22.442Z,0.30
2022-09-17T14:42:55.008Z,0.25
2022-09-17T14:45:26.768Z,0.40
2022-09-17T14:48:24.400Z,0.30
2022-09-17T14:50:50.836Z,0.40
2022-09-17T14:53:19.716Z,0.30
2022-09-17T14:55:52.090Z,0.52
2022-09-17T14:58:29.763Z,0.30
2022-09-17T15:00:56.480Z,1.50
2022-09-17T15:03:24.159Z,0.40
2022-09-17T15:05:51.245Z,0.60
2022-09-17T15:08:27.905Z,0.43
2022-09-17T15:11:01.341Z,0.68
2022-09-17T15:13:30.677Z,0.32
2022-09-17T15:16:01.286Z,0.45
2022-09-17T15:18:38.282Z,0.30
2022-09-17T15:21:15.101Z,0.40
2022-09-17T15:23:42.740Z,0.50
2022-09-17T15:26:09.903Z,0.40
2022-09-17T15:28:44.472Z,0.75
2022-09-17T15:31:18.818Z,0.30
2022-09-17T15:33:46.785Z,0.63
2022-09-17T15:36:20.371Z,1.50
2022-09-17T15:38:47.544Z,0.40
2022-09-17T15:41:30.979Z,0.60
2022-09-17T15:44:35.807Z,0.40
2022-09-17T15:47:39.770Z,0.50
2022-09-17T15:50:19.048Z,4.00
2022-09-17T15:52:45.795Z,1.02
2022-09-17T15:55:32.885Z,1.45
2022-09-17T15:58:00.155Z,1.67
2022-09-17T16:00:27.076Z,0.52
2022-09-17T16:02:54.115Z,0.40
2022-09-17T16:05:27.610Z,0.30
2022-09-17T16:07:54.204Z,0.50
2022-09-17T16:10:20.612Z,0.50
2022-09-17T16:12:49.710Z,0.40
2022-09-17T16:15:17.440Z,0.40
2022-09-17T16:17:48.301Z,0.60
2022-09-17T16:22:49.786Z,4.93
2022-09-17T16:25:24.139Z,0.60
2022-09-17T16:27:52.052Z,3.78
2022-09-17T16:30:21.291Z,0.50
2022-09-17T16:32:48.467Z,0.50
2022-09-17T16:35:17.860Z,0.40
2022-09-17T16:37:47.536Z,1.00
2022-09-17T16:40:14.054Z,2.13
2022-09-17T16:42:40.636Z,0.85
2022-09-17T16:45:08.967Z,0.60
2022-09-17T16:47:40.261Z,0.80
2022-09-17T16:50:10.387Z,0.70
2022-09-17T16:52:37.236Z,1.23
2022-09-17T16:55:04.963Z,0.75
2022-09-17T16:57:32.057Z,0.70
2022-09-17T16:59:58.556Z,0.90
2022-09-17T17:02:25.514Z,1.25
2022-09-17T17:04:52.014Z,0.98
2022-09-17T17:07:18.399Z,0.60
2022-09-17T17:09:44.945Z,0.80
2022-09-17T17:12:11.925Z,0.80
2022-09-17T17:14:38.428Z,0.80
2022-09-17T17:17:04.895Z,0.75
2022-09-17T17:19:31.379Z,0.90
2022-09-17T17:21:57.762Z,0.77
2022-09-17T17:24:24.309Z,0.88
2022-09-17T17:26:50.805Z,0.85
2022-09-17T17:29:17.225Z,1.15
2022-09-17T17:31:43.737Z,0.70
2022-09-17T17:34:10.489Z,0.63
2022-09-17T17:36:36.874Z,0.50
2022-09-17T17:39:03.384Z,0.88
2022-09-17T17:41:29.796Z,0.93
2022-09-17T17:43:57.177Z,1.00
2022-09-17T17:46:24.512Z,1.65
2022-09-17T17:48:51.243Z,1.67
2022-09-17T17:51:18.835Z,1.08
2022-09-17T17:53:45.922Z,1.08
2022-09-17T17:56:13.041Z,1.10
2022-09-17T17:58:40.277Z,1.52
2022-09-17T18:01:14.364Z,0.90
2022-09-17T18:03:41.125Z,0.88
2022-09-17T18:06:08.521Z,1.10
2022-09-17T18:08:37.095Z,1.10
2022-09-17T18:11:04.629Z,2.20
2022-09-17T18:13:31.136Z,3.70
2022-09-17T18:15:59.578Z,4.80
2022-09-17T18:18:30.951Z,3.40
2022-09-17T18:21:05.560Z,3.58
2022-09-17T18:23:34.497Z,2.22
2022-09-17T18:26:01.703Z,1.42
2022-09-17T18:28:30.108Z,1.48
2022-09-17T18:31:03.657Z,2.25
2022-09-17T18:33:30.091Z,1.20
2022-09-17T18:36:03.564Z,1.65
2022-09-17T18:38:31.032Z,1.25
2022-09-17T18:41:04.408Z,1.58
2022-09-17T18:43:31.417Z,1.67
2022-09-17T18:45:58.068Z,2.28
2022-09-17T18:48:25.232Z,1.40
2022-09-17T18:51:17.872Z,1.52
2022-09-17T18:53:47.207Z,1.80
2022-09-17T18:56:20.793Z,1.60
2022-09-17T18:58:49.334Z,1.73
2022-09-17T19:01:17.396Z,1.77
2022-09-17T19:03:43.953Z,1.73
2022-09-17T19:06:12.139Z,1.63
2022-09-17T19:08:39.084Z,1.50
2022-09-17T19:11:06.120Z,1.88
2022-09-17T19:13:35.386Z,2.33
2022-09-17T19:16:02.713Z,3.00
2022-09-17T19:18:29.697Z,1.90
2022-09-17T19:21:07.632Z,1.60
2022-09-17T19:23:34.456Z,2.20
2022-09-17T19:26:29.881Z,1.65
2022-09-17T19:28:58.329Z,1.80
2022-09-17T19:31:25.537Z,1.67
2022-09-17T19:33:52.617Z,2.60
2022-09-17T19:36:20.176Z,2.63
2022-09-17T19:38:47.824Z,1.75
2022-09-17T19:41:17.013Z,2.67
2022-09-17T19:43:45.187Z,2.08
2022-09-17T19:46:14.120Z,2.58
2022-09-17T19:48:52.617Z,2.08
2022-09-17T19:51:20.775Z,2.47
2022-09-17T19:53:47.211Z,2.30
2022-09-17T19:56:16.751Z,2.30
2022-09-17T19:58:43.325Z,2.60
2022-09-17T20:01:10.439Z,2.80
2022-09-17T20:03:42.061Z,2.55
2022-09-17T20:06:10.904Z,2.35
2022-09-17T20:08:46.663Z,2.10
2022-09-17T20:11:14.481Z,2.28
2022-09-17T20:13:40.895Z,1.98
2022-09-17T20:16:10.214Z,2.53
2022-09-17T20:18:36.967Z,2.10
2022-09-17T20:21:18.048Z,2.13
2022-09-17T20:23:44.872Z,2.28
2022-09-17T20:26:14.835Z,3.08
2022-09-17T20:28:41.721Z,3.25
2022-09-17T20:31:11.914Z,2.55
2022-09-17T20:33:38.555Z,2.50
2022-09-17T20:36:13.253Z,2.65
2022-09-17T20:41:27.625Z,2.25
2022-09-17T20:43:54.855Z,2.63
2022-09-17T20:46:27.547Z,2.47
2022-09-17T20:48:57.273Z,2.30
2022-09-17T20:51:25.433Z,3.10
2022-09-17T20:53:52.779Z,2.40
2022-09-17T20:56:21.805Z,3.00
2022-09-17T20:58:54.932Z,4.07
2022-09-17T21:01:24.210Z,2.63
2022-09-17T21:03:53.282Z,2.58
2022-09-17T21:06:22.297Z,2.83
2022-09-17T21:08:49.475Z,3.28
2022-09-17T21:11:16.785Z,3.05
2022-09-17T21:13:43.528Z,2.83
2022-09-17T21:16:11.172Z,3.17
2022-09-17T21:18:39.829Z,3.35
2022-09-17T21:21:17.880Z,2.78
2022-09-17T21:23:44.836Z,3.70
2022-09-17T21:26:13.895Z,2.72
2022-09-17T21:28:41.758Z,2.95
2022-09-17T21:31:14.470Z,2.28
2022-09-17T21:33:42.074Z,3.38
2022-09-17T21:36:13.562Z,2.60
2022-09-17T21:38:40.769Z,2.67
2022-09-17T21:41:10.251Z,3.00
2022-09-17T21:43:36.997Z,2.95
2022-09-17T21:46:14.485Z,3.45
2022-09-17T21:48:46.779Z,2.70
2022-09-17T21:51:15.490Z,2.97
2022-09-17T21:53:42.254Z,3.50
2022-09-17T21:56:14.583Z,2.58
2022-09-17T21:58:42.428Z,2.40
2022-09-17T22:01:17.209Z,3.10
2022-09-17T22:03:44.334Z,3.13
2022-09-17T22:06:18.201Z,4.68
2022-09-17T22:08:46.163Z,3.42
2022-09-17T22:11:24.161Z,3.65
2022-09-17T22:13:56.452Z,3.20
2022-09-17T22:16:26.997Z,2.70
2022-09-17T22:18:53.496Z,3.35
2022-09-17T22:21:24.631Z,2.80
2022-09-17T22:26:19.423Z,3.38
2022-09-17T22:28:45.831Z,3.58
2022-09-17T22:31:13.530Z,3.45
2022-09-17T22:33:42.374Z,2.70
2022-09-17T22:36:11.975Z,3.53
2022-09-17T22:38:38.748Z,5.07
2022-09-17T22:41:13.641Z,3.33
2022-09-17T22:43:40.311Z,3.25
2022-09-17T22:46:13.141Z,3.08
2022-09-17T22:48:40.434Z,3.85
2022-09-17T22:51:07.213Z,3.40
2022-09-17T22:53:34.582Z,3.78
2022-09-17T22:56:01.531Z,4.03
2022-09-17T22:58:27.955Z,3.20
2022-09-17T23:00:55.281Z,3.45
2022-09-17T23:03:25.498Z,3.25
2022-09-17T23:05:52.029Z,2.85
2022-09-17T23:08:18.692Z,3.40
2022-09-17T23:10:45.096Z,3.00
2022-09-17T23:13:11.589Z,3.10
2022-09-17T23:15:38.831Z,3.53
2022-09-17T23:18:06.845Z,3.83
2022-09-17T23:20:33.281Z,3.15
2022-09-17T23:23:00.175Z,2.97
2022-09-17T23:25:29.990Z,2.80
2022-09-17T23:27:56.869Z,3.58
2022-09-17T23:30:26.312Z,3.95
2022-09-17T23:32:57.294Z,3.25
2022-09-17T23:35:25.086Z,4.10
2022-09-17T23:37:51.770Z,3.10
2022-09-17T23:40:18.385Z,2.95
2022-09-17T23:42:44.922Z,2.67
2022-09-17T23:45:11.346Z,2.78
2022-09-17T23:47:37.741Z,3.28
2022-09-17T23:50:04.473Z,3.15
2022-09-17T23:52:30.875Z,3.08
2022-09-17T23:54:58.546Z,3.03
2022-09-17T23:57:25.604Z,2.58
2022-09-17T23:59:52.115Z,2.60
